Time;durP1;ratioP1;P1;durP2;ratioP2;P2;SDS_P1;SDS_P2;PMS_P1;PMS_P2;Temp;Humidity;BMP_temperature;BMP_pressure;BME280_temperature;BME280_humidity;BME280_pressure;Samples;Min_cycle;Max_cycle;Signal;HPM_P1;HPM_P2
2023/04/20 00:00:10;;;;;;;23.70;4.50;;;;;;;13.24;45.99;100297.16;107747;1259;72091;-91
2023/04/20 00:02:42;;;;;;;16.70;4.20;;;;;;;13.25;45.91;100293.92;107871;1259;72961;-89
2023/04/20 00:05:11;;;;;;;13.50;3.50;;;;;;;13.24;45.84;100294.57;107842;1259;61281;-87
2023/04/20 00:07:40;;;;;;;12.50;3.40;;;;;;;13.19;45.97;100290.72;107818;1259;61116;-91
2023/04/20 00:10:09;;;;;;;21.50;4.50;;;;;;;13.24;45.91;100287.77;107749;1259;75587;-91
2023/04/20 00:12:38;;;;;;;15.30;3.60;;;;;;;13.25;45.80;100284.80;107786;1259;73784;-91
2023/04/20 00:15:07;;;;;;;16.80;3.60;;;;;;;13.32;45.61;100288.63;107805;1258;73900;-91
2023/04/20 00:17:38;;;;;;;21.90;4.10;;;;;;;13.39;45.43;100284.42;107824;1257;61147;-88
2023/04/20 00:20:08;;;;;;;13.40;3.40;;;;;;;13.39;45.28;100282.98;107747;1259;61302;-89
2023/04/20 00:22:37;;;;;;;16.80;4.20;;;;;;;13.39;45.24;100279.96;108919;1258;74304;-89
2023/04/20 00:25:06;;;;;;;14.80;3.60;;;;;;;13.31;45.48;100277.21;109057;1259;72258;-88
2023/04/20 00:27:34;;;;;;;16.90;4.10;;;;;;;13.28;45.60;100275.13;108958;1259;71558;-88
2023/04/20 00:30:03;;;;;;;13.90;4.20;;;;;;;13.22;45.53;100272.33;108165;1259;61117;-90
2023/04/20 00:32:32;;;;;;;18.20;4.10;;;;;;;13.23;45.62;100269.11;107811;1258;61169;-89
2023/04/20 00:35:00;;;;;;;16.70;4.10;;;;;;;13.21;45.58;100269.43;107780;1259;74663;-90
2023/04/20 00:37:29;;;;;;;15.50;3.90;;;;;;;13.15;45.80;100269.24;107724;1259;73945;-91
2023/04/20 00:39:58;;;;;;;14.00;4.00;;;;;;;13.14;45.86;100266.70;107787;1259;73629;-90
2023/04/20 00:42:26;;;;;;;18.10;3.70;;;;;;;13.14;45.80;100270.45;107812;1259;61289;-90
2023/04/20 00:44:54;;;;;;;13.10;3.00;;;;;;;13.14;45.96;100267.17;107819;1259;61033;-90
2023/04/20 00:47:23;;;;;;;13.40;3.90;;;;;;;13.14;45.86;100264.66;107825;1258;74852;-89
2023/04/20 00:49:51;;;;;;;16.30;4.00;;;;;;;13.12;45.93;100259.91;107796;1259;73890;-90
2023/04/20 00:52:20;;;;;;;17.40;3.50;;;;;;;13.11;45.96;100255.88;107650;1264;73785;-90
2023/04/20 00:54:48;;;;;;;17.00;4.00;;;;;;;13.15;45.90;100252.46;107783;1259;61237;-90
2023/04/20 00:57:18;;;;;;;14.70;3.60;;;;;;;13.15;45.83;100251.18;107739;1259;61104;-90
2023/04/20 00:59:46;;;;;;;11.80;3.40;;;;;;;13.21;45.87;100248.84;107812;1259;75079;-91
2023/04/20 01:02:15;;;;;;;16.90;3.80;;;;;;;13.21;45.81;100244.86;107661;1258;74134;-91
2023/04/20 01:04:45;;;;;;;9.80;3.40;;;;;;;13.21;45.82;100243.48;107731;1259;71744;-90
2023/04/20 01:07:15;;;;;;;20.40;3.90;;;;;;;13.19;45.80;100236.98;107788;1259;61593;-91
2023/04/20 01:09:45;;;;;;;16.90;3.80;;;;;;;13.18;45.90;100235.77;107791;1259;61320;-89
2023/04/20 01:12:13;;;;;;;11.60;3.30;;;;;;;13.16;46.00;100238.89;107781;1259;75085;-91
2023/04/20 01:14:44;;;;;;;14.00;3.40;;;;;;;13.17;46.00;100237.31;107785;1259;72885;-90
2023/04/20 01:17:13;;;;;;;20.30;4.40;;;;;;;13.23;45.89;100238.05;108192;1258;73508;-89
2023/04/20 01:19:47;;;;;;;18.60;3.40;;;;;;;13.14;46.22;100235.81;108082;1258;61226;-91
2023/04/20 01:22:20;;;;;;;14.50;3.40;;;;;;;13.12;46.40;100236.99;108671;1259;60126;-92
2023/04/20 01:24:50;;;;;;;15.70;4.10;;;;;;;13.11;46.37;100236.48;108671;1259;73873;-90
2023/04/20 01:27:21;;;;;;;19.20;3.50;;;;;;;13.12;46.48;100235.92;107957;1262;71164;-90
2023/04/20 01:29:52;;;;;;;13.20;3.00;;;;;;;13.13;46.56;100233.99;108045;1259;72901;-90
2023/04/20 01:32:20;;;;;;;14.70;3.00;;;;;;;13.12;46.62;100233.88;108090;1259;61257;-93
2023/04/20 01:34:52;;;;;;;14.10;3.20;;;;;;;13.12;46.78;100237.68;108469;1259;61196;-92
2023/04/20 01:37:20;;;;;;;16.50;3.70;;;;;;;13.10;46.75;100234.45;108276;1258;74156;-91
2023/04/20 01:39:48;;;;;;;15.70;3.30;;;;;;;13.11;46.80;100233.41;108478;1259;72758;-90
2023/04/20 01:42:17;;;;;;;14.20;2.90;;;;;;;13.13;46.76;100231.41;108750;1257;72654;-91
2023/04/20 01:44:50;;;;;;;11.80;3.70;;;;;;;13.13;46.62;100227.34;108514;1257;61387;-91
2023/04/20 01:47:18;;;;;;;16.50;4.00;;;;;;;13.14;46.63;100225.23;108532;1257;61145;-89
2023/04/20 01:49:50;;;;;;;18.10;3.90;;;;;;;13.15;46.60;100225.64;108372;1258;75059;-91
2023/04/20 01:52:19;;;;;;;15.40;3.50;;;;;;;13.18;46.61;100224.19;108823;1257;71852;-89
2023/04/20 01:54:56;;;;;;;21.00;4.00;;;;;;;13.19;46.57;100223.57;109160;1258;71469;-88
2023/04/20 01:57:24;;;;;;;16.80;3.50;;;;;;;13.18;46.66;100225.68;109115;1259;59144;-86
2023/04/20 01:59:53;;;;;;;16.60;3.90;;;;;;;13.19;46.54;100225.73;109068;1258;59033;-89
2023/04/20 02:02:22;;;;;;;15.40;3.30;;;;;;;13.19;46.49;100222.45;108979;1258;72606;-89
2023/04/20 02:04:52;;;;;;;15.00;3.00;;;;;;;13.21;46.45;100219.98;108343;1257;73095;-89
2023/04/20 02:07:21;;;;;;;13.10;3.20;;;;;;;13.22;46.48;100216.16;108389;1257;73522;-91
2023/04/20 02:09:50;;;;;;;17.20;3.20;;;;;;;13.24;46.49;100207.31;108487;1260;61257;-92
2023/04/20 02:12:21;;;;;;;18.40;3.40;;;;;;;13.25;46.45;100212.13;108594;1257;59727;-90
2023/04/20 02:14:55;;;;;;;10.80;3.20;;;;;;;13.26;46.33;100204.23;107836;1259;74587;-91
2023/04/20 02:17:23;;;;;;;12.30;2.90;;;;;;;13.26;46.26;100203.65;107786;1259;73626;-90
2023/04/20 02:19:52;;;;;;;14.90;3.60;;;;;;;13.27;46.12;100204.48;107791;1257;70718;-92
2023/04/20 02:22:20;;;;;;;18.80;3.80;;;;;;;13.28;46.03;100204.65;107750;1258;61395;-89
2023/04/20 02:24:48;;;;;;;14.80;3.30;;;;;;;13.29;45.99;100205.52;107796;1257;61359;-90
2023/04/20 02:27:17;;;;;;;15.60;3.00;;;;;;;13.28;46.01;100204.52;107731;1260;75913;-90
2023/04/20 02:29:45;;;;;;;16.00;3.40;;;;;;;13.27;45.78;100202.09;107804;1259;72946;-91
2023/04/20 02:32:14;;;;;;;17.40;4.10;;;;;;;13.25;45.69;100195.39;107805;1259;72436;-92
2023/04/20 02:34:42;;;;;;;17.40;3.20;;;;;;;13.24;45.58;100194.00;107673;1259;61138;-88
2023/04/20 02:37:10;;;;;;;16.40;3.50;;;;;;;13.24;45.57;100192.56;107744;1258;61329;-91
2023/04/20 02:39:39;;;;;;;14.90;3.50;;;;;;;13.24;45.58;100191.69;107863;1258;75515;-88
2023/04/20 02:42:07;;;;;;;14.90;3.50;;;;;;;13.24;45.40;100187.83;107826;1258;73014;-90
2023/04/20 02:44:35;;;;;;;12.70;3.40;;;;;;;13.24;45.36;100188.20;107907;1258;73103;-90
2023/04/20 02:47:04;;;;;;;12.00;3.00;;;;;;;13.24;45.41;100189.39;107844;1259;60820;-89
2023/04/20 02:49:33;;;;;;;17.00;4.30;;;;;;;13.23;45.25;100186.27;107770;1259;61244;-90
2023/04/20 02:52:02;;;;;;;14.00;3.30;;;;;;;13.22;45.11;100186.86;107664;1258;75403;-89
2023/04/20 02:54:32;;;;;;;15.50;3.20;;;;;;;13.23;44.97;100185.00;107781;1257;72378;-87
2023/04/20 02:57:05;;;;;;;14.10;3.20;;;;;;;13.23;44.91;100183.38;107931;1259;73963;-92
2023/04/20 02:59:35;;;;;;;17.80;3.30;;;;;;;13.22;44.78;100185.04;108047;1259;60117;-91
2023/04/20 03:02:39;;;;;;;17.10;3.60;;;;;;;13.24;44.83;100183.54;107925;1263;61282;-93
2023/04/20 03:05:13;;;;;;;14.70;3.40;;;;;;;13.25;44.73;100184.18;108193;1259;73494;-91
2023/04/20 03:07:59;;;;;;;13.70;3.60;;;;;;;13.27;44.70;100187.44;108090;1258;73709;-91
2023/04/20 03:10:31;;;;;;;;;;;;;;;13.27;44.61;100189.15;107887;1259;71740;-89
2023/04/20 03:13:17;;;;;;;14.40;3.40;;;;;;;13.28;44.19;100183.67;108072;1259;61229;-90
2023/04/20 03:16:12;;;;;;;12.60;4.10;;;;;;;13.31;44.08;100185.63;109147;1257;61166;-85
2023/04/20 03:18:45;;;;;;;12.80;3.10;;;;;;;13.35;44.12;100187.73;109108;1258;74595;-85
2023/04/20 03:21:14;;;;;;;15.70;3.40;;;;;;;13.37;44.03;100185.83;109095;1259;72398;-84
2023/04/20 03:23:43;;;;;;;10.90;3.50;;;;;;;13.37;43.81;100190.17;108944;1257;72678;-83
2023/04/20 03:26:12;;;;;;;15.60;3.60;;;;;;;13.39;43.83;100186.17;109179;1257;60412;-88
2023/04/20 03:28:55;;;;;;;;;;;;;;;13.42;43.75;100186.90;109201;1258;60362;-87
2023/04/20 03:31:27;;;;;;;;;;;;;;;13.41;43.64;100182.52;108400;1257;73304;-91
2023/04/20 03:33:56;;;;;;;13.80;3.70;;;;;;;13.40;43.82;100186.29;108361;1259;73125;-90
2023/04/20 03:36:28;;;;;;;15.30;4.00;;;;;;;13.39;43.89;100189.30;108258;1259;71550;-92
2023/04/20 03:38:56;;;;;;;11.90;3.40;;;;;;;13.40;44.05;100180.92;107728;1258;61328;-91
2023/04/20 03:41:25;;;;;;;14.10;4.40;;;;;;;13.38;44.15;100181.20;107747;1260;61234;-91
2023/04/20 03:43:55;;;;;;;15.40;4.20;;;;;;;13.39;44.17;100177.66;107786;1259;74645;-88
2023/04/20 03:46:23;;;;;;;14.10;4.10;;;;;;;13.45;44.21;100182.91;107754;1257;71832;-91
2023/04/20 03:48:51;;;;;;;12.00;3.90;;;;;;;13.46;44.54;100181.27;107829;1259;73758;-87
2023/04/20 03:51:20;;;;;;;18.60;3.90;;;;;;;13.44;44.77;100188.50;107831;1259;61247;-88
2023/04/20 03:53:48;;;;;;;15.30;4.00;;;;;;;13.40;45.30;100184.67;107783;1259;61137;-91
2023/04/20 03:56:18;;;;;;;13.60;3.70;;;;;;;13.35;45.83;100186.02;107726;1263;74639;-89
2023/04/20 03:58:47;;;;;;;14.30;4.10;;;;;;;13.26;46.39;100185.02;107781;1259;74222;-91
2023/04/20 04:01:19;;;;;;;11.10;3.30;;;;;;;13.03;47.59;100189.52;107410;1259;480777;-91
2023/04/20 04:03:49;;;;;;;15.20;5.40;;;;;;;12.87;48.26;100188.15;107767;1260;60757;-90
2023/04/20 04:06:18;;;;;;;14.30;4.00;;;;;;;12.79;48.73;100186.61;107803;1259;61107;-90
2023/04/20 04:08:46;;;;;;;14.80;4.10;;;;;;;12.73;49.05;100189.77;107763;1259;74762;-89
2023/04/20 04:11:14;;;;;;;7.10;3.50;;;;;;;12.62;49.46;100184.59;107749;1257;72410;-91
2023/04/20 04:13:43;;;;;;;14.20;4.60;;;;;;;12.51;49.89;100187.30;107621;1259;72344;-91
2023/04/20 04:16:12;;;;;;;14.40;4.10;;;;;;;12.65;49.99;100183.82;108034;1259;61428;-90
2023/04/20 04:18:43;;;;;;;14.00;3.90;;;;;;;12.79;49.92;100180.87;107903;1259;61276;-89
2023/04/20 04:21:11;;;;;;;16.60;4.30;;;;;;;12.50;50.79;100185.27;107798;1259;74420;-90
2023/04/20 04:23:41;;;;;;;18.90;4.00;;;;;;;12.36;51.43;100185.95;107850;1259;73656;-90
2023/04/20 04:26:23;;;;;;;9.50;3.50;;;;;;;12.31;51.95;100183.08;107781;1259;71752;-90
2023/04/20 04:28:52;;;;;;;9.40;3.50;;;;;;;12.30;52.05;100184.80;107849;1259;61119;-91
2023/04/20 04:31:22;;;;;;;14.40;4.00;;;;;;;12.35;52.30;100182.42;107858;1259;61103;-91
2023/04/20 04:33:51;;;;;;;10.90;3.30;;;;;;;12.53;52.10;100183.10;107859;1260;74654;-92
2023/04/20 04:36:43;;;;;;;9.80;2.90;;;;;;;12.64;51.91;100181.15;108300;1262;70882;-87
2023/04/20 04:39:14;;;;;;;15.80;4.00;;;;;;;12.68;52.13;100181.16;108703;1257;73680;-90
2023/04/20 04:41:51;;;;;;;11.00;3.40;;;;;;;12.70;52.30;100182.98;108504;1260;60091;-89
2023/04/20 04:44:27;;;;;;;13.30;3.50;;;;;;;12.41;53.19;100178.00;108485;1257;59628;-90
2023/04/20 04:46:57;;;;;;;17.10;3.40;;;;;;;12.29;53.78;100184.75;108612;1257;75649;-88
2023/04/20 04:49:26;;;;;;;19.30;4.00;;;;;;;12.30;53.92;100179.88;108544;1259;72943;-87
2023/04/20 04:51:54;;;;;;;15.90;4.10;;;;;;;12.31;54.20;100180.45;108543;1263;72409;-89
2023/04/20 04:54:22;;;;;;;13.70;3.60;;;;;;;12.31;54.51;100184.10;108730;1260;63227;-90
2023/04/20 04:56:51;;;;;;;17.70;4.00;;;;;;;12.35;54.59;100178.94;109163;1257;60395;-80
2023/04/20 04:59:19;;;;;;;16.60;3.90;;;;;;;12.37;54.75;100178.55;109158;1259;74601;-93
2023/04/20 05:01:49;;;;;;;14.50;4.00;;;;;;;12.35;55.18;100173.90;108706;1258;70915;-91
2023/04/20 05:04:18;;;;;;;14.60;4.00;;;;;;;12.34;55.51;100172.30;108458;1260;72535;-92
2023/04/20 05:06:46;;;;;;;14.90;4.40;;;;;;;12.35;55.85;100177.71;108150;1259;61713;-93
2023/04/20 05:09:17;;;;;;;18.20;4.00;;;;;;;12.37;56.22;100171.75;107868;1258;60355;-90
2023/04/20 05:11:47;;;;;;;18.70;4.40;;;;;;;12.34;56.36;100173.23;107788;1263;74681;-90
2023/04/20 05:14:17;;;;;;;19.60;3.80;;;;;;;12.26;56.91;100174.38;107771;1260;74030;-89
2023/04/20 05:16:46;;;;;;;13.20;3.80;;;;;;;12.13;57.43;100180.46;107752;1257;73754;-90
2023/04/20 05:19:15;;;;;;;13.40;4.00;;;;;;;12.08;57.81;100181.23;107862;1257;62747;-93
2023/04/20 05:21:44;;;;;;;16.80;4.10;;;;;;;12.04;57.93;100181.04;107833;1259;61241;-91
2023/04/20 05:24:13;;;;;;;14.50;4.00;;;;;;;12.01;58.34;100176.17;107890;1258;75402;-92
2023/04/20 05:26:43;;;;;;;16.40;3.90;;;;;;;11.95;58.59;100178.84;107843;1258;73977;-92
2023/04/20 05:29:14;;;;;;;19.10;3.80;;;;;;;11.94;58.84;100182.92;107835;1259;72582;-91
2023/04/20 05:31:44;;;;;;;20.10;4.40;;;;;;;11.94;58.89;100184.35;107816;1258;63198;-91
2023/04/20 05:34:12;;;;;;;13.00;3.60;;;;;;;11.93;59.26;100185.95;107837;1260;61146;-90
2023/04/20 05:36:41;;;;;;;18.30;4.20;;;;;;;11.90;59.72;100183.13;107859;1257;73934;-92
2023/04/20 05:39:12;;;;;;;10.90;4.00;;;;;;;11.85;59.93;100188.14;107746;1260;73995;-91
2023/04/20 05:41:41;;;;;;;12.80;3.40;;;;;;;11.85;60.50;100188.62;107826;1258;73869;-89
2023/04/20 05:44:10;;;;;;;12.70;3.50;;;;;;;11.81;60.98;100190.54;107779;1259;63028;-90
2023/04/20 05:46:40;;;;;;;16.70;3.90;;;;;;;11.77;61.51;100190.45;107920;1260;61164;-91
2023/04/20 05:49:09;;;;;;;15.90;3.80;;;;;;;11.76;61.95;100191.73;107861;1260;74654;-89
2023/04/20 05:51:37;;;;;;;15.30;4.40;;;;;;;11.77;62.67;100189.27;107778;1259;73616;-90
2023/04/20 05:54:06;;;;;;;16.60;4.50;;;;;;;11.77;62.85;100189.42;107742;1258;72323;-89
2023/04/20 05:56:35;;;;;;;11.50;3.50;;;;;;;11.77;63.32;100191.08;107786;1258;62943;-88
2023/04/20 05:59:03;;;;;;;14.30;4.30;;;;;;;11.75;63.78;100186.86;107777;1257;61125;-90
2023/04/20 06:01:33;;;;;;;19.20;4.30;;;;;;;11.76;64.18;100189.12;107781;1259;74736;-89
2023/04/20 06:04:05;;;;;;;19.50;4.20;;;;;;;11.77;64.50;100188.57;107850;1262;73653;-91
2023/04/20 06:06:35;;;;;;;16.60;4.20;;;;;;;11.79;64.50;100188.30;107638;1259;73986;-90
2023/04/20 06:09:04;;;;;;;15.40;4.10;;;;;;;11.80;64.69;100192.03;107691;1260;61696;-88
2023/04/20 06:11:32;;;;;;;13.40;3.50;;;;;;;11.83;64.90;100184.06;107804;1257;61476;-92
2023/04/20 06:14:01;;;;;;;17.90;4.00;;;;;;;11.88;65.04;100183.84;107830;1258;73806;-87
2023/04/20 06:16:29;;;;;;;11.30;3.50;;;;;;;11.93;65.06;100177.77;107845;1257;73950;-93
2023/04/20 06:18:58;;;;;;;14.50;3.90;;;;;;;11.98;64.99;100180.53;107970;1260;72658;-91
2023/04/20 06:21:27;;;;;;;15.60;4.30;;;;;;;12.05;65.08;100176.38;107651;1258;63273;-91
2023/04/20 06:23:56;;;;;;;14.90;4.10;;;;;;;12.14;64.94;100179.33;108229;1257;61194;-90
2023/04/20 06:26:25;;;;;;;14.60;3.70;;;;;;;12.24;64.80;100180.66;109037;1258;74399;-90
2023/04/20 06:28:54;;;;;;;14.70;4.50;;;;;;;12.33;64.35;100169.05;109087;1257;73058;-87
2023/04/20 06:31:23;;;;;;;16.80;3.90;;;;;;;12.37;64.13;100170.30;108866;1260;72736;-92
2023/04/20 06:33:51;;;;;;;18.20;4.10;;;;;;;12.66;63.30;100166.71;107888;1258;61913;-91
2023/04/20 06:36:20;;;;;;;13.00;3.80;;;;;;;12.75;62.96;100161.82;107884;1257;61113;-92
2023/04/20 06:38:50;;;;;;;14.20;3.90;;;;;;;12.80;62.81;100156.41;107903;1257;74984;-91
2023/04/20 06:41:22;;;;;;;17.60;4.00;;;;;;;12.83;62.65;100154.04;107904;1258;72597;-94
2023/04/20 06:43:52;;;;;;;13.20;3.40;;;;;;;12.87;62.40;100146.87;107869;1262;73607;-93
2023/04/20 06:46:21;;;;;;;18.40;3.70;;;;;;;12.96;62.55;100145.73;107951;1257;61972;-91
2023/04/20 06:49:06;;;;;;;15.80;3.90;;;;;;;13.03;62.38;100143.66;108548;1263;60106;-91
2023/04/20 06:51:42;;;;;;;14.20;4.60;;;;;;;13.17;62.25;100144.64;108346;1257;73871;-88
2023/04/20 06:54:15;;;;;;;13.90;4.10;;;;;;;13.31;61.88;100144.92;108285;1260;72392;-90
2023/04/20 06:56:57;;;;;;;15.30;4.40;;;;;;;13.47;61.58;100143.55;108049;1258;73628;-94
2023/04/20 06:59:36;;;;;;;14.50;3.50;;;;;;;13.61;61.19;100142.69;107919;1261;61169;-91
2023/04/20 07:02:05;;;;;;;10.60;3.70;;;;;;;13.67;60.34;100140.73;108062;1258;59512;-90
2023/04/20 07:04:39;;;;;;;14.30;4.20;;;;;;;13.73;60.17;100139.42;108014;1258;75558;-95
2023/04/20 07:07:08;;;;;;;18.50;4.50;;;;;;;13.79;60.04;100140.31;107892;1260;73733;-89
2023/04/20 07:09:37;;;;;;;15.30;3.60;;;;;;;13.81;59.60;100138.84;107845;1261;73907;-93
2023/04/20 07:12:08;;;;;;;15.20;4.50;;;;;;;13.78;59.37;100138.59;107838;1259;61586;-93
2023/04/20 07:14:36;;;;;;;14.40;4.00;;;;;;;13.76;59.14;100135.48;107779;1259;61116;-90
2023/04/20 07:17:06;;;;;;;14.20;3.90;;;;;;;13.75;59.18;100133.33;107752;1263;74527;-90
2023/04/20 07:19:37;;;;;;;16.50;3.40;;;;;;;13.76;59.01;100132.36;107734;1263;70583;-90
2023/04/20 07:22:05;;;;;;;16.10;4.00;;;;;;;13.77;58.93;100130.78;107827;1260;72971;-90
2023/04/20 07:24:36;;;;;;;18.60;5.50;;;;;;;13.79;58.29;100128.98;107820;1261;61522;-90
2023/04/20 07:27:07;;;;;;;16.50;3.70;;;;;;;13.82;58.15;100132.08;107866;1257;61153;-91
2023/04/20 07:29:35;;;;;;;16.90;3.60;;;;;;;13.83;57.81;100128.40;107953;1260;75882;-90
2023/04/20 07:32:07;;;;;;;15.30;3.80;;;;;;;13.85;57.15;100123.80;107820;1260;72886;-94
2023/04/20 07:34:41;;;;;;;17.50;3.70;;;;;;;13.82;56.75;100126.05;107718;1259;70744;-87
2023/04/20 07:37:12;;;;;;;14.10;3.30;;;;;;;13.81;56.76;100124.44;108027;1259;63474;-89
2023/04/20 07:39:40;;;;;;;11.60;3.00;;;;;;;13.82;56.79;100120.95;107928;1260;61095;-91
2023/04/20 07:42:08;;;;;;;18.30;3.30;;;;;;;13.85;56.54;100122.73;107966;1259;73493;-89
2023/04/20 07:44:48;;;;;;;17.50;3.60;;;;;;;13.89;56.44;100118.45;107865;1259;72814;-91
2023/04/20 07:47:21;;;;;;;17.20;4.00;;;;;;;13.89;56.38;100114.27;107980;1260;73623;-90
2023/04/20 07:49:50;;;;;;;15.80;3.70;;;;;;;13.91;56.14;100117.09;107815;1259;63007;-89
2023/04/20 07:52:18;;;;;;;18.20;4.60;;;;;;;13.86;56.02;100111.03;107656;1259;61283;-89
2023/04/20 07:54:47;;;;;;;14.60;3.70;;;;;;;13.79;55.95;100112.19;108220;1259;75900;-90
2023/04/20 07:57:16;;;;;;;20.10;4.50;;;;;;;13.76;55.85;100107.61;108948;1259;72742;-83
2023/04/20 07:59:45;;;;;;;19.80;4.30;;;;;;;13.76;56.10;100110.92;108977;1259;72655;-90
2023/04/20 08:02:15;;;;;;;16.40;4.50;;;;;;;13.66;56.42;100113.21;108524;1257;62005;-87
2023/04/20 08:04:45;;;;;;;14.50;4.20;;;;;;;13.73;56.44;100111.14;107821;1258;61563;-91
2023/04/20 08:07:14;;;;;;;16.00;3.20;;;;;;;13.80;56.18;100118.99;107872;1258;74571;-88
2023/04/20 08:09:42;;;;;;;19.90;4.30;;;;;;;13.81;55.98;100116.02;107848;1257;74256;-92
2023/04/20 08:12:11;;;;;;;18.00;4.20;;;;;;;13.82;56.21;100115.05;107830;1257;73786;-89
2023/04/20 08:14:41;;;;;;;18.90;3.70;;;;;;;13.78;55.98;100113.91;107818;1258;62222;-91
2023/04/20 08:17:10;;;;;;;17.20;3.80;;;;;;;13.70;55.94;100120.69;107782;1258;61234;-87
2023/04/20 08:19:38;;;;;;;13.60;3.30;;;;;;;13.66;56.11;100116.12;107856;1260;73447;-88
2023/04/20 08:22:11;;;;;;;16.90;4.10;;;;;;;13.62;56.00;100113.27;107752;1261;73047;-88
2023/04/20 08:24:39;;;;;;;17.00;4.00;;;;;;;13.58;55.84;100120.14;107702;1261;72694;-90
2023/04/20 08:27:08;;;;;;;20.20;5.20;;;;;;;13.52;55.88;100120.05;107813;1263;62090;-91
2023/04/20 08:29:38;;;;;;;18.50;4.90;;;;;;;13.52;56.30;100120.36;107823;1260;60366;-93
2023/04/20 08:32:08;;;;;;;8.30;3.20;;;;;;;13.52;56.55;100120.16;107706;1258;75822;-94
2023/04/20 08:34:39;;;;;;;13.40;4.80;;;;;;;13.52;56.86;100123.91;107745;1258;72700;-92
2023/04/20 08:37:09;;;;;;;15.80;3.60;;;;;;;13.53;56.87;100122.92;107787;1258;72647;-88
2023/04/20 08:39:40;;;;;;;17.10;4.00;;;;;;;13.53;56.85;100126.11;107783;1260;61948;-92
2023/04/20 08:42:12;;;;;;;15.70;4.00;;;;;;;13.49;57.02;100118.41;107908;1260;61147;-93
2023/04/20 08:44:41;;;;;;;14.30;3.60;;;;;;;13.47;57.36;100126.02;108017;1257;75655;-95
2023/04/20 08:47:10;;;;;;;21.40;4.70;;;;;;;13.40;57.67;100115.03;108284;1261;72908;-95
2023/04/20 08:49:45;;;;;;;15.20;4.00;;;;;;;13.32;58.11;100116.37;108096;1258;73893;-92
2023/04/20 08:52:22;;;;;;;17.40;4.40;;;;;;;13.25;58.46;100112.63;108146;1257;62939;-94
2023/04/20 08:54:50;;;;;;;13.80;3.80;;;;;;;13.22;59.07;100121.44;108182;1260;61254;-94
2023/04/20 08:57:26;;;;;;;22.20;4.40;;;;;;;13.21;59.25;100115.39;108300;1259;75818;-92
2023/04/20 08:59:55;;;;;;;23.10;3.90;;;;;;;13.14;59.65;100116.00;108465;1260;73385;-90
2023/04/20 09:02:25;;;;;;;19.50;3.90;;;;;;;13.07;59.57;100115.58;107924;1263;73771;-95
2023/04/20 09:05:05;;;;;;;18.40;3.60;;;;;;;13.08;59.56;100112.24;108076;1257;61758;-95
2023/04/20 09:08:08;;;;;;;11.30;3.70;;;;;;;13.22;59.06;100113.87;108380;1257;61148;-93
2023/04/20 09:10:42;;;;;;;19.80;3.80;;;;;;;13.29;58.79;100110.02;108109;1261;75902;-90
2023/04/20 09:13:22;;;;;;;16.10;3.40;;;;;;;13.34;58.29;100116.60;108178;1257;73426;-90
2023/04/20 09:15:56;;;;;;;10.20;2.80;;;;;;;13.42;58.10;100110.30;108037;1257;74848;-91
2023/04/20 09:18:33;;;;;;;12.00;3.30;;;;;;;13.45;57.89;100112.51;107942;1260;61992;-93
2023/04/20 09:21:08;;;;;;;11.10;2.90;;;;;;;13.49;58.01;100114.60;107777;1260;61156;-91
2023/04/20 09:23:39;;;;;;;9.50;2.90;;;;;;;13.44;58.04;100113.39;108315;1257;74852;-93
2023/04/20 09:26:17;;;;;;;14.50;3.40;;;;;;;13.44;58.22;100116.11;109022;1257;73787;-92
2023/04/20 09:29:26;;;;;;;9.90;3.00;;;;;;;13.47;58.21;100114.24;109164;1257;71388;-92
2023/04/20 09:32:27;;;;;;;12.20;2.80;;;;;;;13.47;57.97;100112.70;108980;1260;60731;-93
2023/04/20 09:34:56;;;;;;;10.90;3.50;;;;;;;13.46;58.04;100111.33;108843;1261;60383;-91
2023/04/20 09:37:47;;;;;;;13.50;3.50;;;;;;;13.47;58.12;100106.89;108971;1261;74326;-86
2023/04/20 09:40:17;;;;;;;11.90;3.00;;;;;;;13.62;57.97;100117.13;109041;1259;71948;-92
2023/04/20 09:42:47;;;;;;;13.30;2.90;;;;;;;13.69;57.71;100113.17;109057;1261;72725;-86
2023/04/20 09:45:15;;;;;;;12.70;3.20;;;;;;;13.63;57.73;100111.91;108896;1260;61721;-84
2023/04/20 09:47:43;;;;;;;11.20;2.90;;;;;;;13.67;57.60;100115.73;108681;1260;61032;-93
2023/04/20 09:50:14;;;;;;;12.50;3.10;;;;;;;13.75;57.44;100118.84;108930;1260;74743;-90
2023/04/20 09:52:59;;;;;;;13.80;3.30;;;;;;;13.81;57.14;100119.46;108727;1259;74159;-89
2023/04/20 09:55:31;;;;;;;13.80;3.20;;;;;;;13.84;56.87;100119.38;107824;1260;72623;-89
2023/04/20 09:58:03;;;;;;;10.20;3.00;;;;;;;13.80;56.83;100118.23;107829;1263;63378;-87
2023/04/20 10:00:33;;;;;;;13.30;3.20;;;;;;;13.73;57.14;100116.56;107901;1260;61131;-91
2023/04/20 10:03:02;;;;;;;13.90;3.60;;;;;;;13.74;57.49;100125.35;107749;1260;75663;-92
2023/04/20 10:05:38;;;;;;;15.30;3.80;;;;;;;13.74;58.01;100127.22;107971;1260;73001;-94
2023/04/20 10:08:08;;;;;;;10.60;2.90;;;;;;;13.78;58.25;100131.10;107943;1261;72442;-94
2023/04/20 10:10:50;;;;;;;14.50;3.40;;;;;;;13.82;58.32;100132.06;107892;1260;61127;-92
2023/04/20 10:13:20;;;;;;;18.70;3.20;;;;;;;13.79;58.08;100129.84;107954;1260;61282;-92
2023/04/20 10:15:50;;;;;;;16.20;3.50;;;;;;;13.75;58.32;100135.48;107953;1259;74553;-93
2023/04/20 10:18:24;;;;;;;14.00;3.50;;;;;;;13.72;58.45;100132.45;108273;1260;72815;-93
2023/04/20 10:21:08;;;;;;;14.10;3.40;;;;;;;13.69;58.54;100130.94;108108;1260;73801;-91
2023/04/20 10:24:04;;;;;;;13.10;3.90;;;;;;;13.64;58.58;100126.66;107854;1260;63147;-89
2023/04/20 10:26:37;;;;;;;15.90;3.30;;;;;;;13.59;58.47;100128.92;107909;1259;61358;-92
2023/04/20 10:29:05;;;;;;;13.10;2.80;;;;;;;13.57;58.29;100126.52;107922;1260;75856;-87
2023/04/20 10:31:39;;;;;;;12.50;3.00;;;;;;;13.55;57.90;100120.48;107848;1260;71417;-92
2023/04/20 10:34:08;;;;;;;14.50;4.30;;;;;;;13.61;57.94;100128.96;107991;1260;74085;-87
2023/04/20 10:36:37;;;;;;;10.30;3.60;;;;;;;13.63;57.56;100123.98;107883;1260;62584;-93
2023/04/20 10:39:16;;;;;;;12.50;3.50;;;;;;;13.68;57.57;100134.27;107948;1259;61093;-92
2023/04/20 10:41:58;;;;;;;18.10;4.20;;;;;;;13.73;57.49;100133.36;107792;1260;73700;-93
2023/04/20 10:44:28;;;;;;;10.60;3.40;;;;;;;13.76;57.46;100130.37;107858;1260;73934;-92
2023/04/20 10:46:59;;;;;;;13.10;3.50;;;;;;;13.83;57.50;100134.46;107835;1259;71307;-91
2023/04/20 10:49:28;;;;;;;13.60;3.30;;;;;;;13.86;57.51;100132.39;107824;1260;63158;-87
2023/04/20 10:51:56;;;;;;;10.50;2.80;;;;;;;13.88;57.74;100132.16;107863;1260;60360;-90
2023/04/20 10:54:25;;;;;;;13.70;3.20;;;;;;;13.87;57.79;100136.79;107996;1258;73415;-84
2023/04/20 10:56:57;;;;;;;11.50;2.70;;;;;;;13.88;57.83;100138.05;108773;1258;72660;-87
2023/04/20 10:59:27;;;;;;;9.50;3.40;;;;;;;13.89;58.00;100136.27;109059;1260;71701;-90
2023/04/20 11:02:00;;;;;;;11.00;3.50;;;;;;;13.95;58.64;100143.98;109047;1257;60834;-91
2023/04/20 11:04:31;;;;;;;16.30;3.80;;;;;;;13.96;58.90;100148.64;108927;1257;59133;-88
2023/04/20 11:07:06;;;;;;;9.50;3.30;;;;;;;13.90;59.16;100145.92;108713;1257;73349;-90
2023/04/20 11:09:37;;;;;;;15.60;3.70;;;;;;;13.81;59.50;100152.42;108851;1257;70945;-94
2023/04/20 11:12:13;;;;;;;13.00;3.50;;;;;;;13.74;59.84;100153.20;109017;1257;72802;-92
2023/04/20 11:15:01;;;;;;;10.40;3.30;;;;;;;13.62;60.27;100154.11;109042;1257;60681;-88
2023/04/20 11:18:13;;;;;;;11.70;3.20;;;;;;;13.53;60.73;100158.94;109104;1257;58735;-92
2023/04/20 11:20:54;;;;;;;12.80;3.90;;;;;;;13.46;61.23;100163.36;108920;1260;73864;-89
2023/04/20 11:23:24;;;;;;;13.70;3.30;;;;;;;13.40;61.52;100161.56;108845;1260;71871;-88
2023/04/20 11:25:55;;;;;;;11.10;3.60;;;;;;;13.40;61.62;100164.84;108771;1260;71511;-91
2023/04/20 11:28:29;;;;;;;10.10;4.30;;;;;;;13.38;61.38;100162.48;108418;1260;60245;-88